createdAt,value
2018-09-14T00:00:00.998Z,576.5
2018-09-14T00:01:03.436Z,576.5
2018-09-14T00:02:05.863Z,576.4
2018-09-14T00:03:08.298Z,576.1
2018-09-14T00:04:10.736Z,576.3
2018-09-14T00:05:13.160Z,576.1
2018-09-14T00:06:15.307Z,576
2018-09-14T00:07:17.462Z,576.2
2018-09-14T00:08:19.888Z,576.3
2018-09-14T00:09:22.321Z,576.1
2018-09-14T00:10:24.757Z,576.2
2018-09-14T00:11:27.196Z,576.1
2018-09-14T00:12:29.645Z,576
2018-09-14T00:13:32.076Z,575.7
2018-09-14T00:14:34.247Z,575.7
2018-09-14T00:15:36.675Z,575.7
2018-09-14T00:16:39.117Z,575.6
2018-09-14T00:17:41.541Z,575.9
2018-09-14T00:18:43.979Z,575.7
2018-09-14T00:19:46.405Z,575.7
2018-09-14T00:20:48.863Z,575.8
2018-09-14T00:21:51.298Z,575.9
2018-09-14T00:22:53.458Z,575.6
2018-09-14T00:23:55.889Z,575.4
2018-09-14T00:24:58.313Z,575.6
2018-09-14T00:26:00.445Z,575.6
2018-09-14T00:27:02.314Z,575.7
2018-09-14T00:28:04.746Z,575.6
2018-09-14T00:29:07.180Z,575.6
2018-09-14T00:30:09.626Z,575.7
2018-09-14T00:31:12.061Z,575.6
2018-09-14T00:32:14.499Z,575.4
2018-09-14T00:33:16.926Z,575.5
2018-09-14T00:34:19.360Z,575.5
2018-09-14T00:35:21.787Z,575.4
2018-09-14T00:36:24.213Z,575.6
2018-09-14T00:37:26.647Z,575.6
2018-09-14T00:38:29.076Z,575.2
2018-09-14T00:39:31.509Z,574.9
2018-09-14T00:40:33.959Z,575.5
2018-09-14T00:41:36.416Z,575.3
2018-09-14T00:42:38.577Z,575.4
2018-09-14T00:43:41.006Z,575.9
2018-09-14T00:44:43.438Z,576
2018-09-14T00:45:45.870Z,575.9
2018-09-14T00:46:48.299Z,576
2018-09-14T00:47:50.721Z,575.9
2018-09-14T00:48:53.162Z,575.8
2018-09-14T00:49:55.629Z,575.5
2018-09-14T00:50:58.056Z,575.6
2018-09-14T00:52:00.481Z,575.4
2018-09-14T00:53:02.647Z,575.7
2018-09-14T00:54:05.070Z,575.5
2018-09-14T00:55:07.495Z,575.6
2018-09-14T00:56:09.929Z,575.8
2018-09-14T00:57:12.116Z,575.5
2018-09-14T00:58:14.275Z,575.9
2018-09-14T00:59:16.704Z,575.6
2018-09-14T01:00:19.137Z,576
2018-09-14T01:01:21.567Z,575.8
2018-09-14T01:02:23.986Z,575.8
2018-09-14T01:03:25.851Z,576.3
2018-09-14T01:04:28.277Z,576.2
2018-09-14T01:05:30.427Z,575.7
2018-09-14T01:06:32.598Z,576
2018-09-14T01:07:35.054Z,576
2018-09-14T01:08:37.476Z,575.7
2018-09-14T01:09:39.911Z,575.7
2018-09-14T01:10:42.342Z,575.8
2018-09-14T01:11:44.775Z,575.9
2018-09-14T01:12:47.224Z,575.9
2018-09-14T01:13:49.674Z,576.1
2018-09-14T01:14:52.085Z,575.8
2018-09-14T01:15:54.523Z,575.9
2018-09-14T01:16:56.952Z,575.8
2018-09-14T01:17:59.418Z,575.9
2018-09-14T01:19:01.843Z,575.8
2018-09-14T01:20:04.376Z,575.7
2018-09-14T01:21:06.247Z,575.2
2018-09-14T01:22:08.676Z,575.6
2018-09-14T01:23:11.104Z,575.4
2018-09-14T01:24:13.549Z,575.5
2018-09-14T01:25:15.991Z,575.4
2018-09-14T01:26:18.412Z,575.4
2018-09-14T01:27:20.844Z,575.4
2018-09-14T01:28:23.286Z,575.6
2018-09-14T01:29:25.717Z,575.5
2018-09-14T01:30:28.146Z,575.5
2018-09-14T01:31:30.573Z,575.3
2018-09-14T01:32:33.021Z,575.6
2018-09-14T01:33:35.447Z,575.1
2018-09-14T01:34:37.885Z,574.8
2018-09-14T01:35:40.310Z,575.3
2018-09-14T01:36:42.170Z,575.7
2018-09-14T01:37:44.607Z,575.3
2018-09-14T01:38:47.039Z,575.3
2018-09-14T01:39:49.467Z,575.4
2018-09-14T01:40:51.899Z,575.7
2018-09-14T01:41:54.321Z,575.9
2018-09-14T01:42:56.752Z,575.9
2018-09-14T01:43:59.177Z,576
2018-09-14T01:45:01.609Z,576.1
2018-09-14T01:46:04.033Z,575.9
2018-09-14T01:47:06.520Z,576
2018-09-14T01:48:08.930Z,575.9
2018-09-14T01:49:11.361Z,576.2
2018-09-14T01:50:13.785Z,576
2018-09-14T01:51:16.226Z,576.2
2018-09-14T01:52:18.660Z,576
2018-09-14T01:53:21.085Z,575.9
2018-09-14T01:54:23.518Z,575.7
2018-09-14T01:55:25.944Z,575.7
2018-09-14T01:56:28.367Z,575.5
2018-09-14T01:57:30.781Z,575.7
2018-09-14T01:58:33.220Z,575.7
2018-09-14T01:59:35.375Z,575.7
2018-09-14T02:00:37.807Z,575.5
2018-09-14T02:01:40.231Z,575.5
2018-09-14T02:02:42.669Z,575.6
2018-09-14T02:03:45.108Z,575.8
2018-09-14T02:04:47.546Z,576
2018-09-14T02:05:49.698Z,575.8
2018-09-14T02:06:51.825Z,575.7
2018-09-14T02:07:54.256Z,575.5
2018-09-14T02:08:56.690Z,575.7
2018-09-14T02:09:59.118Z,575.3
2018-09-14T02:11:01.555Z,575.3
2018-09-14T02:12:03.988Z,575.1
2018-09-14T02:13:06.416Z,575.5
2018-09-14T02:14:08.840Z,575.6
2018-09-14T02:15:11.297Z,575.5
2018-09-14T02:16:13.732Z,575.5
2018-09-14T02:17:16.161Z,575.5
2018-09-14T02:18:18.589Z,575.5
2018-09-14T02:19:21.012Z,575.2
2018-09-14T02:20:23.168Z,575
2018-09-14T02:21:25.595Z,575.4
2018-09-14T02:22:28.034Z,575.2
2018-09-14T02:23:30.457Z,575
2018-09-14T02:24:32.896Z,574.7
2018-09-14T02:25:35.279Z,575.1
2018-09-14T02:26:37.703Z,575.2
2018-09-14T02:27:40.145Z,575.2
2018-09-14T02:28:42.600Z,575.2
2018-09-14T02:29:45.025Z,575.3
2018-09-14T02:30:47.464Z,575
2018-09-14T02:31:49.895Z,575.4
2018-09-14T02:32:52.321Z,575.2
2018-09-14T02:33:54.493Z,575.4
2018-09-14T02:34:56.932Z,575.2
2018-09-14T02:35:59.363Z,574.9
2018-09-14T02:37:01.790Z,574.8
2018-09-14T02:38:04.230Z,574.8
2018-09-14T02:39:06.666Z,574.5
2018-09-14T02:40:09.090Z,574.4
2018-09-14T02:41:11.520Z,574.4
2018-09-14T02:42:13.986Z,574.1
2018-09-14T02:43:16.136Z,574.4
2018-09-14T02:44:18.565Z,574
2018-09-14T02:45:20.996Z,574.2
2018-09-14T02:46:23.424Z,573.6
2018-09-14T02:47:25.905Z,574.1
2018-09-14T02:48:27.997Z,573.9
2018-09-14T02:49:30.452Z,574.1
2018-09-14T02:50:32.876Z,573.9
2018-09-14T02:51:35.310Z,573.6
2018-09-14T02:52:37.471Z,572.8
2018-09-14T02:53:39.903Z,572.8
2018-09-14T02:54:42.338Z,572.6
2018-09-14T02:55:44.501Z,572.8
2018-09-14T02:56:46.671Z,572.8
2018-09-14T02:57:49.108Z,572.9
2018-09-14T02:58:51.534Z,572.5
2018-09-14T02:59:53.970Z,572.6
2018-09-14T03:00:56.407Z,572.2
2018-09-14T03:01:58.834Z,572.3
2018-09-14T03:03:01.265Z,572.5
2018-09-14T03:04:03.697Z,572
2018-09-14T03:05:06.133Z,572.3
2018-09-14T03:06:08.600Z,572.3
2018-09-14T03:07:10.764Z,572.4
2018-09-14T03:08:13.197Z,572.5
2018-09-14T03:09:15.341Z,572.7
2018-09-14T03:10:17.476Z,572.9
2018-09-14T03:11:19.906Z,572.4
2018-09-14T03:12:22.057Z,572.5
2018-09-14T03:13:24.492Z,572.7
2018-09-14T03:14:26.983Z,573
2018-09-14T03:15:29.407Z,572.6
2018-09-14T03:16:31.836Z,572.7
2018-09-14T03:17:34.264Z,572.5
2018-09-14T03:18:36.708Z,572.9
2018-09-14T03:19:39.135Z,573.2
2018-09-14T03:20:41.561Z,573.3
2018-09-14T03:21:43.986Z,573.4
2018-09-14T03:22:46.415Z,573.7
2018-09-14T03:23:48.844Z,573.2
2018-09-14T03:24:51.277Z,573.3
2018-09-14T03:25:53.713Z,573.4
2018-09-14T03:26:56.156Z,573.5
2018-09-14T03:27:58.586Z,573.2
2018-09-14T03:29:01.024Z,573.2
2018-09-14T03:30:03.457Z,573.2
2018-09-14T03:31:05.883Z,573.5
2018-09-14T03:32:08.339Z,572.9
2018-09-14T03:33:10.817Z,572.6
2018-09-14T03:34:13.253Z,572.9
2018-09-14T03:35:15.692Z,572.8
2018-09-14T03:36:18.121Z,572.6
2018-09-14T03:37:20.272Z,572.9
2018-09-14T03:38:22.698Z,572.9
2018-09-14T03:39:25.724Z,572.5
2018-09-14T03:40:28.175Z,572.7
2018-09-14T03:41:30.599Z,572.8
2018-09-14T03:42:33.087Z,572.8
2018-09-14T03:43:35.511Z,572.8
2018-09-14T03:44:37.960Z,573.1
2018-09-14T03:45:40.429Z,572.7
2018-09-14T03:46:42.857Z,573.3
2018-09-14T03:47:45.284Z,573.1
2018-09-14T03:48:47.728Z,573.1
2018-09-14T03:49:50.162Z,572.7
2018-09-14T03:50:52.589Z,572.7
2018-09-14T03:51:55.014Z,572.7
2018-09-14T03:52:57.456Z,572.7
2018-09-14T03:53:59.906Z,572.6
2018-09-14T03:55:02.348Z,572.3
2018-09-14T03:56:04.773Z,572.5
2018-09-14T03:57:07.365Z,572.7
2018-09-14T03:58:09.538Z,572.7
2018-09-14T03:59:11.973Z,572.7
2018-09-14T04:00:14.403Z,572.6
2018-09-14T04:01:16.841Z,572.7
2018-09-14T04:02:19.269Z,572.7
2018-09-14T04:03:21.703Z,572.9
2018-09-14T04:04:24.153Z,573
2018-09-14T04:05:26.572Z,572.7
2018-09-14T04:06:29.011Z,573
2018-09-14T04:07:31.448Z,572.9
2018-09-14T04:08:33.599Z,572.8
2018-09-14T04:09:35.766Z,572.8
2018-09-14T04:10:38.206Z,572.8
2018-09-14T04:11:40.634Z,572.9
2018-09-14T04:12:43.074Z,572.9
2018-09-14T04:13:45.522Z,572.6
2018-09-14T04:14:47.952Z,572.5
2018-09-14T04:15:50.376Z,572.5
2018-09-14T04:16:52.848Z,572.5
2018-09-14T04:17:55.277Z,572.6
2018-09-14T04:18:57.702Z,572.3
2018-09-14T04:20:00.134Z,572.2
2018-09-14T04:21:02.284Z,572.3
2018-09-14T04:22:04.723Z,571.9
2018-09-14T04:23:07.165Z,572.1
2018-09-14T04:24:09.610Z,572.6
2018-09-14T04:25:12.038Z,572.7
2018-09-14T04:26:14.503Z,572.7
2018-09-14T04:27:16.928Z,572.9
2018-09-14T04:28:19.373Z,572.3
2018-09-14T04:29:21.808Z,572.9
2018-09-14T04:30:24.235Z,572.5
2018-09-14T04:31:26.384Z,572.4
2018-09-14T04:32:28.813Z,572.6
2018-09-14T04:33:31.257Z,572.7
2018-09-14T04:34:33.687Z,572.6
2018-09-14T04:35:35.843Z,572.6
2018-09-14T04:36:38.273Z,572.5
2018-09-14T04:37:40.714Z,572.5
2018-09-14T04:38:43.775Z,572.9
2018-09-14T04:39:46.283Z,572.3
2018-09-14T04:40:48.727Z,572.1
2018-09-14T04:41:51.162Z,571.8
2018-09-14T04:42:53.593Z,572
2018-09-14T04:43:55.450Z,571.8
2018-09-14T04:44:57.880Z,572
2018-09-14T04:46:00.310Z,571.7
2018-09-14T04:47:02.737Z,571.8
2018-09-14T04:48:05.170Z,571.5
2018-09-14T04:49:07.601Z,571.8
2018-09-14T04:50:10.031Z,571.1
2018-09-14T04:51:12.600Z,571.3
2018-09-14T04:52:15.029Z,571.3
2018-09-14T04:53:17.182Z,571
2018-09-14T04:54:19.617Z,571.2
2018-09-14T04:55:22.053Z,570.6
2018-09-14T04:56:24.487Z,570.9
2018-09-14T04:57:27.434Z,570.6
2018-09-14T04:58:29.879Z,570.7
2018-09-14T04:59:32.319Z,570.5
2018-09-14T05:00:34.749Z,570.3
2018-09-14T05:01:36.924Z,570.3
2018-09-14T05:02:39.346Z,570.4
2018-09-14T05:03:41.777Z,570.2
2018-09-14T05:04:44.198Z,570.1
2018-09-14T05:05:46.357Z,570.1
2018-09-14T05:06:48.808Z,570.2
2018-09-14T05:07:51.229Z,570.1
2018-09-14T05:08:53.677Z,570.1
2018-09-14T05:09:56.137Z,569.8
2018-09-14T05:10:58.572Z,569.9
2018-09-14T05:12:00.717Z,569.7
2018-09-14T05:13:03.148Z,569.6
2018-09-14T05:14:05.780Z,569.1
2018-09-14T05:15:08.258Z,569.4
2018-09-14T05:16:10.157Z,569.4
2018-09-14T05:17:12.591Z,569.4
2018-09-14T05:18:15.014Z,569.1
2018-09-14T05:19:17.176Z,569.1
2018-09-14T05:20:19.645Z,569.3
2018-09-14T05:21:22.078Z,569.4
2018-09-14T05:22:24.509Z,569.5
2018-09-14T05:23:26.947Z,569.4
2018-09-14T05:24:29.654Z,569.1
2018-09-14T05:25:32.081Z,569
2018-09-14T05:26:34.514Z,569
2018-09-14T05:27:36.986Z,568.4
2018-09-14T05:28:39.426Z,568.9
2018-09-14T05:29:41.890Z,569
2018-09-14T05:30:44.365Z,569
2018-09-14T05:31:46.837Z,569
2018-09-14T05:32:49.305Z,569.2
2018-09-14T05:33:51.745Z,569
2018-09-14T05:34:54.187Z,569
2018-09-14T05:35:56.331Z,569
2018-09-14T05:36:58.773Z,569.1
2018-09-14T05:38:01.210Z,568.7
2018-09-14T05:39:03.643Z,568.7
2018-09-14T05:40:06.061Z,568.8
2018-09-14T05:41:08.486Z,568.5
2018-09-14T05:42:10.910Z,568.4
2018-09-14T05:43:13.335Z,568.3
2018-09-14T05:44:15.772Z,568.4
2018-09-14T05:45:18.209Z,568.3
2018-09-14T05:46:20.632Z,568
2018-09-14T05:47:23.072Z,568
2018-09-14T05:48:25.504Z,568
2018-09-14T05:49:27.927Z,567.7
2018-09-14T05:50:30.363Z,567.6
2018-09-14T05:51:32.635Z,567.7
2018-09-14T05:52:35.059Z,567.4
2018-09-14T05:53:37.209Z,567.5
2018-09-14T05:54:39.874Z,567.3
2018-09-14T05:55:42.018Z,567.3
2018-09-14T05:56:44.468Z,567.3
2018-09-14T05:57:46.897Z,567
2018-09-14T05:58:49.036Z,567.1
2018-09-14T05:59:51.475Z,567
2018-09-14T06:00:53.904Z,567
2018-09-14T06:01:56.083Z,567
2018-09-14T06:02:58.520Z,567
2018-09-14T06:04:00.958Z,566.6
2018-09-14T06:05:03.383Z,567.3
2018-09-14T06:06:05.819Z,566.9
2018-09-14T06:07:08.259Z,566.8
2018-09-14T06:08:10.709Z,567
2018-09-14T06:09:13.166Z,566.8
2018-09-14T06:10:15.591Z,566.7
2018-09-14T06:11:18.028Z,566.8
2018-09-14T06:12:20.466Z,566.7
2018-09-14T06:13:22.888Z,566.8
2018-09-14T06:14:25.048Z,566.8
2018-09-14T06:15:27.478Z,566.7
2018-09-14T06:16:29.796Z,566.7
2018-09-14T06:17:32.234Z,566.6
2018-09-14T06:18:34.667Z,566.7
2018-09-14T06:19:37.108Z,566.5
2018-09-14T06:20:39.535Z,566.5
2018-09-14T06:21:41.995Z,566.3
2018-09-14T06:22:44.477Z,566.4
2018-09-14T06:23:46.998Z,566.6
2018-09-14T06:24:49.124Z,566.5
2018-09-14T06:25:51.555Z,566.7
2018-09-14T06:26:53.710Z,566.7
2018-09-14T06:27:56.227Z,566.5
2018-09-14T06:28:58.656Z,566.7
2018-09-14T06:30:01.103Z,566.2
2018-09-14T06:31:03.579Z,566.3
2018-09-14T06:32:06.075Z,566.3
2018-09-14T06:33:08.528Z,566.6
2018-09-14T06:34:10.678Z,566.5
2018-09-14T06:35:12.857Z,566.3
2018-09-14T06:36:15.295Z,566.4
2018-09-14T06:37:17.736Z,566.1
2018-09-14T06:38:20.186Z,566.3
2018-09-14T06:39:22.665Z,566.1
2018-09-14T06:40:25.120Z,566
2018-09-14T06:41:27.554Z,565.7
2018-09-14T06:42:29.984Z,565.6
2018-09-14T06:43:32.427Z,566
2018-09-14T06:44:34.583Z,565.9
2018-09-14T06:45:37.029Z,565.5
2018-09-14T06:46:39.476Z,565.5
2018-09-14T06:47:41.915Z,565.6
2018-09-14T06:48:44.346Z,565.5
2018-09-14T06:49:46.776Z,565.3
2018-09-14T06:50:49.204Z,564.9
2018-09-14T06:51:51.670Z,564.8
2018-09-14T06:52:54.097Z,565
2018-09-14T06:53:56.526Z,564.9
2018-09-14T06:54:58.966Z,564.6
2018-09-14T06:56:01.122Z,564.4
2018-09-14T06:57:03.544Z,564.7
2018-09-14T06:58:05.710Z,564.4
2018-09-14T06:59:08.147Z,564.4
2018-09-14T07:00:11.093Z,564.3
2018-09-14T07:01:13.593Z,564.2
2018-09-14T07:02:16.017Z,564.5
2018-09-14T07:03:18.556Z,564.5
2018-09-14T07:04:20.985Z,564.7
2018-09-14T07:05:23.424Z,564.4
2018-09-14T07:06:26.180Z,564.5
2018-09-14T07:07:28.657Z,564.3
2018-09-14T07:08:31.101Z,564.8
2018-09-14T07:09:33.225Z,564.6
2018-09-14T07:10:35.671Z,564.7
2018-09-14T07:11:38.515Z,564.6
2018-09-14T07:12:40.944Z,564.9
2018-09-14T07:13:43.396Z,564.7
2018-09-14T07:14:45.839Z,564.9
2018-09-14T07:15:48.282Z,564.5
2018-09-14T07:16:50.712Z,564.8
2018-09-14T07:17:53.162Z,564.5
2018-09-14T07:18:55.588Z,564.6
2018-09-14T07:19:58.047Z,564.5
2018-09-14T07:21:00.236Z,564.6
2018-09-14T07:22:02.750Z,564.3
2018-09-14T07:23:04.964Z,564.5
2018-09-14T07:24:07.390Z,564
2018-09-14T07:25:09.836Z,564.2
2018-09-14T07:26:12.290Z,564
2018-09-14T07:27:14.740Z,563.9
2018-09-14T07:28:17.224Z,564.1
2018-09-14T07:29:20.009Z,563.6
2018-09-14T07:30:22.486Z,563.5
2018-09-14T07:31:25.000Z,563.4
2018-09-14T07:32:27.451Z,563
2018-09-14T07:33:29.985Z,563.1
2018-09-14T07:34:32.409Z,562.8
2018-09-14T07:35:34.827Z,562.7
2018-09-14T07:36:37.817Z,562.7
2018-09-14T07:37:40.306Z,562.8
2018-09-14T07:38:42.752Z,562.6
2018-09-14T07:39:45.188Z,562.8
2018-09-14T07:40:47.634Z,562.4
2018-09-14T07:41:50.069Z,562.6
2018-09-14T07:42:52.518Z,562.3
2018-09-14T07:43:54.959Z,562.2
2018-09-14T07:44:57.387Z,562.2
2018-09-14T07:45:59.823Z,562.2
2018-09-14T07:47:02.245Z,562.1
2018-09-14T07:48:04.706Z,562.3
2018-09-14T07:49:07.135Z,562.2
2018-09-14T07:50:09.589Z,562.1
2018-09-14T07:51:12.024Z,561.9
2018-09-14T07:52:14.471Z,562.2
2018-09-14T07:53:16.929Z,561.9
2018-09-14T07:54:19.359Z,561.8
2018-09-14T07:55:22.036Z,561.8
2018-09-14T07:56:24.467Z,561.6
2018-09-14T07:57:26.616Z,561.5
2018-09-14T07:58:29.042Z,561.2
2018-09-14T07:59:31.478Z,561.5
2018-09-14T08:00:33.909Z,561.2
2018-09-14T08:01:36.355Z,561.1
2018-09-14T08:02:38.795Z,561.1
2018-09-14T08:03:41.261Z,560.8
2018-09-14T08:04:43.690Z,561
2018-09-14T08:05:46.127Z,560.7
2018-09-14T08:06:48.556Z,560.7
2018-09-14T08:07:50.996Z,560.6
2018-09-14T08:08:53.437Z,560.7
2018-09-14T08:09:55.867Z,560.3
2018-09-14T08:10:58.308Z,560.6
2018-09-14T08:12:00.378Z,560.4
2018-09-14T08:13:02.336Z,560.4
2018-09-14T08:14:04.191Z,560.2
2018-09-14T08:15:06.331Z,560.1
2018-09-14T08:16:08.780Z,560
2018-09-14T08:17:11.220Z,560.1
2018-09-14T08:18:13.379Z,559.9
2018-09-14T08:19:15.797Z,560.1
2018-09-14T08:20:18.835Z,560
2018-09-14T08:21:22.081Z,559.9
2018-09-14T08:22:24.506Z,560.1
2018-09-14T08:23:26.936Z,559.9
2018-09-14T08:24:29.376Z,560
2018-09-14T08:25:31.823Z,560
2018-09-14T08:26:34.253Z,559.8
2018-09-14T08:27:36.688Z,559.8
2018-09-14T08:28:39.127Z,559.2
2018-09-14T08:29:41.558Z,559.5
2018-09-14T08:30:43.979Z,559.5
2018-09-14T08:31:46.405Z,559.8
2018-09-14T08:32:48.855Z,559.7
2018-09-14T08:33:51.298Z,560.1
2018-09-14T08:34:53.738Z,559.5
2018-09-14T08:35:56.189Z,559.3
2018-09-14T08:36:58.615Z,559.6
2018-09-14T08:38:01.046Z,559.6
2018-09-14T08:39:03.479Z,559.9
2018-09-14T08:40:05.905Z,559.7
2018-09-14T08:41:08.078Z,559.6
2018-09-14T08:42:10.523Z,559.6
2018-09-14T08:43:12.687Z,559.7
2018-09-14T08:44:15.121Z,559.7
2018-09-14T08:45:17.566Z,559.4
2018-09-14T08:46:19.993Z,559.5
2018-09-14T08:47:22.438Z,559.2
2018-09-14T08:48:24.869Z,559.2
2018-09-14T08:49:27.300Z,559.3
2018-09-14T08:50:29.728Z,559.4
2018-09-14T08:51:32.162Z,559.2
2018-09-14T08:52:34.692Z,559.5
2018-09-14T08:53:37.269Z,559.4
2018-09-14T08:54:39.723Z,559.6
2018-09-14T08:55:41.880Z,559.3
2018-09-14T08:56:44.306Z,559.2
2018-09-14T08:57:46.743Z,558.9
2018-09-14T08:58:49.179Z,559.4
2018-09-14T08:59:51.609Z,559.3
2018-09-14T09:00:54.906Z,558.9
2018-09-14T09:01:57.251Z,559.1
2018-09-14T09:02:59.728Z,559
2018-09-14T09:04:02.388Z,558.7
2018-09-14T09:05:04.818Z,558.7
2018-09-14T09:06:07.281Z,558.7
2018-09-14T09:07:09.901Z,558.6
2018-09-14T09:08:12.408Z,558.8
2018-09-14T09:09:15.213Z,558.7
2018-09-14T09:10:17.701Z,559
2018-09-14T09:11:20.012Z,558.8
2018-09-14T09:12:22.471Z,559.1
2018-09-14T09:13:24.911Z,558.9
2018-09-14T09:14:27.346Z,558.6
2018-09-14T09:15:29.778Z,558.9
2018-09-14T09:16:32.204Z,558.7
2018-09-14T09:17:34.704Z,558.4
2018-09-14T09:18:37.178Z,558.3
2018-09-14T09:19:39.612Z,558.7
2018-09-14T09:20:42.053Z,558.8
2018-09-14T09:21:44.477Z,558.7
2018-09-14T09:22:46.656Z,558.7
2018-09-14T09:23:49.086Z,558.9
2018-09-14T09:24:51.284Z,558.8
2018-09-14T09:25:53.718Z,558.8
2018-09-14T09:26:56.143Z,558.6
2018-09-14T09:27:58.574Z,559
2018-09-14T09:29:01.014Z,558.5
2018-09-14T09:30:03.452Z,558.7
2018-09-14T09:31:05.895Z,558.4
2018-09-14T09:32:08.335Z,558.2
2018-09-14T09:33:10.771Z,558.6
2018-09-14T09:34:13.208Z,559
2018-09-14T09:35:15.637Z,558.9
2018-09-14T09:36:18.078Z,558.5
2018-09-14T09:37:20.507Z,558.8
2018-09-14T09:38:22.937Z,558.8
2018-09-14T09:39:25.417Z,559
2018-09-14T09:40:27.848Z,559.2
2018-09-14T09:41:30.288Z,559.3
2018-09-14T09:42:32.730Z,559.3
2018-09-14T09:43:36.714Z,559.2
2018-09-14T09:44:39.258Z,558.8
2018-09-14T09:45:41.694Z,559.2
2018-09-14T09:46:44.125Z,559.1
2018-09-14T09:47:46.564Z,558.8
2018-09-14T09:48:48.998Z,558.8
2018-09-14T09:49:51.438Z,558.9
2018-09-14T09:50:54.490Z,558.5
2018-09-14T09:51:56.933Z,558.7
2018-09-14T09:52:59.366Z,559
2018-09-14T09:54:01.797Z,558.6
2018-09-14T09:55:04.252Z,558.4
2018-09-14T09:56:06.687Z,558.7
2018-09-14T09:57:09.118Z,558.7
2018-09-14T09:58:11.567Z,558.8
2018-09-14T09:59:13.995Z,558.8
2018-09-14T10:00:16.417Z,558.8
2018-09-14T10:01:18.865Z,559.3
2018-09-14T10:02:21.318Z,559.1
2018-09-14T10:03:23.757Z,558.8
2018-09-14T10:04:26.198Z,559.1
2018-09-14T10:05:28.635Z,558.8
2018-09-14T10:06:31.074Z,559.2
2018-09-14T10:07:33.514Z,559.3
2018-09-14T10:08:35.676Z,559.2
2018-09-14T10:09:37.826Z,559.2
2018-09-14T10:10:40.257Z,559.4
2018-09-14T10:11:42.692Z,559.5
2018-09-14T10:12:45.126Z,559.3
2018-09-14T10:13:47.558Z,559.5
2018-09-14T10:14:50.005Z,559.2
2018-09-14T10:15:52.446Z,559
2018-09-14T10:16:54.897Z,559.6
2018-09-14T10:17:57.049Z,559.5
2018-09-14T10:18:59.474Z,559.6
2018-09-14T10:20:01.641Z,559.4
2018-09-14T10:21:04.283Z,559.4
2018-09-14T10:22:06.767Z,559.1
2018-09-14T10:23:09.240Z,559.2
2018-09-14T10:24:11.399Z,559.4
2018-09-14T10:25:13.837Z,559.5
2018-09-14T10:26:16.280Z,559.7
2018-09-14T10:27:18.723Z,559.7
2018-09-14T10:28:21.157Z,559.8
2018-09-14T10:29:23.587Z,559.7
2018-09-14T10:30:25.733Z,559.5
2018-09-14T10:31:28.167Z,559.2
2018-09-14T10:32:30.603Z,559.3
2018-09-14T10:33:33.043Z,559.1
2018-09-14T10:34:35.472Z,559.1
2018-09-14T10:35:37.928Z,559
2018-09-14T10:36:40.365Z,559.4
2018-09-14T10:37:42.795Z,559
2018-09-14T10:38:44.976Z,558.7
2018-09-14T10:39:47.405Z,558.9
2018-09-14T10:40:50.395Z,559.3
2018-09-14T10:41:52.637Z,558.9
2018-09-14T10:42:55.700Z,559.1
2018-09-14T10:43:58.262Z,559.1
2018-09-14T10:45:00.707Z,559.2
2018-09-14T10:46:03.157Z,559.5
2018-09-14T10:47:05.039Z,559.5
2018-09-14T10:48:07.512Z,559.4
2018-09-14T10:49:09.939Z,559.6
2018-09-14T10:50:12.381Z,559.2
2018-09-14T10:51:14.832Z,559.3
2018-09-14T10:52:17.276Z,559.3
2018-09-14T10:53:19.422Z,559.6
2018-09-14T10:54:21.847Z,559.6
2018-09-14T10:55:24.408Z,559.6
2018-09-14T10:56:26.867Z,559.6
2018-09-14T10:57:29.307Z,559.5
2018-09-14T10:58:31.739Z,559.8
2018-09-14T10:59:34.179Z,559.6
2018-09-14T11:00:36.678Z,559.5
2018-09-14T11:01:39.108Z,559.8
2018-09-14T11:02:41.536Z,559.8
2018-09-14T11:03:43.983Z,559.6
2018-09-14T11:04:46.421Z,559.8
2018-09-14T11:05:48.867Z,560
2018-09-14T11:06:51.547Z,559.7
2018-09-14T11:07:53.442Z,559.8
2018-09-14T11:08:55.912Z,559.9
2018-09-14T11:09:58.558Z,559.6
2018-09-14T11:11:01.047Z,559.8
2018-09-14T11:12:03.475Z,559.6
2018-09-14T11:13:06.536Z,559.8
2018-09-14T11:14:09.047Z,559.5
2018-09-14T11:15:11.486Z,559.7
2018-09-14T11:16:13.938Z,559.7
2018-09-14T11:17:16.375Z,560.4
2018-09-14T11:18:18.549Z,560.1
2018-09-14T11:19:20.993Z,560.3
2018-09-14T11:20:23.500Z,560.4
2018-09-14T11:21:25.927Z,559.7
2018-09-14T11:22:28.362Z,559.6
2018-09-14T11:23:30.806Z,559.8
2018-09-14T11:24:33.465Z,559.6
2018-09-14T11:25:35.628Z,559.9
2018-09-14T11:26:38.084Z,559.7
2018-09-14T11:27:40.523Z,559.7
2018-09-14T11:28:42.969Z,559.9
2018-09-14T11:29:45.429Z,559.9
2018-09-14T11:30:47.868Z,559.8
2018-09-14T11:31:50.309Z,560
2018-09-14T11:32:52.734Z,560.2
2018-09-14T11:33:55.197Z,560.4
2018-09-14T11:34:57.668Z,560.5
2018-09-14T11:35:59.815Z,560.4
2018-09-14T11:37:02.249Z,560.2
2018-09-14T11:38:04.863Z,560.5
2018-09-14T11:39:07.317Z,560.6
2018-09-14T11:40:09.471Z,561
2018-09-14T11:41:11.626Z,561
2018-09-14T11:42:14.073Z,560.7
2018-09-14T11:43:15.943Z,561.1
2018-09-14T11:44:18.090Z,561.2
2018-09-14T11:45:20.737Z,561.1
2018-09-14T11:46:22.921Z,561.2
2018-09-14T11:47:25.075Z,561.4
2018-09-14T11:48:27.505Z,561.4
2018-09-14T11:49:29.954Z,561.5
2018-09-14T11:50:32.379Z,561.3
2018-09-14T11:51:34.808Z,561.8
2018-09-14T11:52:37.247Z,561.5
2018-09-14T11:53:39.698Z,561.4
2018-09-14T11:54:41.856Z,562
2018-09-14T11:55:44.297Z,561.9
2018-09-14T11:56:46.738Z,562.5
2018-09-14T11:57:49.181Z,562.6
2018-09-14T11:58:51.616Z,562.6
2018-09-14T11:59:54.048Z,562.7
2018-09-14T12:00:56.475Z,562.8
2018-09-14T12:01:58.915Z,562.7
2018-09-14T12:03:01.345Z,562.3
2018-09-14T12:04:03.829Z,562.8
2018-09-14T12:05:06.258Z,562.7
2018-09-14T12:06:08.689Z,562.8
2018-09-14T12:07:11.127Z,563.2
2018-09-14T12:08:13.574Z,563.2
2018-09-14T12:09:16.025Z,562.9
2018-09-14T12:10:18.466Z,562.9
2018-09-14T12:11:20.904Z,563.3
2018-09-14T12:12:23.038Z,563.7
2018-09-14T12:13:25.477Z,563.9
2018-09-14T12:14:27.932Z,563.8
2018-09-14T12:15:30.369Z,563.6
2018-09-14T12:16:32.807Z,563.6
2018-09-14T12:17:35.243Z,563.8
2018-09-14T12:18:37.678Z,563.6
2018-09-14T12:19:40.128Z,564
2018-09-14T12:20:42.559Z,563.9
2018-09-14T12:21:44.992Z,564.2
2018-09-14T12:22:47.418Z,564.1
2018-09-14T12:23:49.880Z,564.4
2018-09-14T12:24:52.357Z,564.2
2018-09-14T12:25:54.817Z,564.2
2018-09-14T12:26:57.255Z,564
2018-09-14T12:27:59.716Z,564.2
2018-09-14T12:29:01.888Z,563.8
2018-09-14T12:30:04.327Z,564.3
2018-09-14T12:31:06.767Z,563.9
2018-09-14T12:32:09.191Z,564.2
2018-09-14T12:33:11.618Z,563.9
2018-09-14T12:34:14.121Z,564
2018-09-14T12:35:16.555Z,564
2018-09-14T12:36:18.726Z,563.8
2018-09-14T12:37:21.231Z,563.9
2018-09-14T12:38:23.371Z,563.7
2018-09-14T12:39:25.804Z,564
2018-09-14T12:40:27.984Z,563.6
2018-09-14T12:41:30.427Z,564.1
2018-09-14T12:42:32.855Z,563.8
2018-09-14T12:43:35.281Z,564.2
2018-09-14T12:44:37.715Z,564.1
2018-09-14T12:45:40.168Z,564.5
2018-09-14T12:46:42.614Z,564.7
2018-09-14T12:47:45.047Z,564.8
2018-09-14T12:48:47.996Z,565.3
2018-09-14T12:49:50.499Z,564.8
2018-09-14T12:50:52.945Z,565
2018-09-14T12:51:55.389Z,564.5
2018-09-14T12:52:57.821Z,564.9
2018-09-14T12:54:00.250Z,564.9
2018-09-14T12:55:02.677Z,564.9
2018-09-14T12:56:05.134Z,565.1
2018-09-14T12:57:07.606Z,564.8
2018-09-14T12:58:10.042Z,564.7
2018-09-14T12:59:12.474Z,565.2
2018-09-14T13:00:14.915Z,564.7
2018-09-14T13:01:17.348Z,564.9
2018-09-14T13:02:19.803Z,565
2018-09-14T13:03:22.248Z,565
2018-09-14T13:04:25.245Z,565.2
2018-09-14T13:05:27.750Z,565.4
2018-09-14T13:06:30.191Z,565.1
2018-09-14T13:07:32.617Z,565.5
2018-09-14T13:08:35.052Z,565.4
2018-09-14T13:09:37.485Z,565.7
2018-09-14T13:10:39.917Z,565.7
2018-09-14T13:11:42.350Z,565.3
2018-09-14T13:12:44.805Z,566
2018-09-14T13:13:47.255Z,565.9
2018-09-14T13:14:49.876Z,565.9
2018-09-14T13:15:52.344Z,566.2
2018-09-14T13:16:54.776Z,566.4
2018-09-14T13:17:57.208Z,566.4
2018-09-14T13:18:59.650Z,566.6
2018-09-14T13:20:02.109Z,566.8
2018-09-14T13:21:04.249Z,566.8
2018-09-14T13:22:06.678Z,566.7
2018-09-14T13:23:09.111Z,566.7
2018-09-14T13:24:11.801Z,566.8
2018-09-14T13:25:14.237Z,566.9
2018-09-14T13:26:16.667Z,567.2
2018-09-14T13:27:19.109Z,567.1
2018-09-14T13:28:21.568Z,566.8